sensor_id;sensor_type;location;lat;lon;timestamp;P1;durP1;ratioP1;P2;durP2;ratioP2
40629;SDS011;26329;40.388;-3.710;2022-07-29T00:04:23;5.13;;;2.75;;
40629;SDS011;26329;40.388;-3.710;2022-07-29T00:14:25;5.43;;;3.92;;
40629;SDS011;26329;40.388;-3.710;2022-07-29T00:24:27;0.85;;;0.63;;
40629;SDS011;26329;40.388;-3.710;2022-07-29T00:34:29;1.83;;;0.38;;
40629;SDS011;26329;40.388;-3.710;2022-07-29T00:44:50;2.15;;;0.70;;
40629;SDS011;26329;40.388;-3.710;2022-07-29T00:54:51;5.63;;;0.77;;
40629;SDS011;26329;40.388;-3.710;2022-07-29T01:04:53;3.45;;;0.90;;
40629;SDS011;26329;40.388;-3.710;2022-07-29T01:14:56;5.68;;;0.90;;
40629;SDS011;26329;40.388;-3.710;2022-07-29T01:25:25;2.08;;;0.93;;
40629;SDS011;26329;40.388;-3.710;2022-07-29T01:35:27;2.78;;;0.85;;
40629;SDS011;26329;40.388;-3.710;2022-07-29T01:45:38;3.47;;;2.20;;
40629;SDS011;26329;40.388;-3.710;2022-07-29T01:55:52;6.85;;;3.65;;
40629;SDS011;26329;40.388;-3.710;2022-07-29T02:05:58;3.50;;;2.13;;
40629;SDS011;26329;40.388;-3.710;2022-07-29T02:16:17;3.40;;;2.10;;
40629;SDS011;26329;40.388;-3.710;2022-07-29T02:26:32;5.00;;;1.48;;
40629;SDS011;26329;40.388;-3.710;2022-07-29T02:36:42;9.02;;;2.55;;
40629;SDS011;26329;40.388;-3.710;2022-07-29T02:56:53;6.75;;;2.13;;
40629;SDS011;26329;40.388;-3.710;2022-07-29T03:06:59;4.03;;;1.90;;
40629;SDS011;26329;40.388;-3.710;2022-07-29T03:17:03;3.95;;;2.00;;
40629;SDS011;26329;40.388;-3.710;2022-07-29T03:27:05;12.02;;;2.00;;
40629;SDS011;26329;40.388;-3.710;2022-07-29T03:37:08;4.07;;;1.70;;
40629;SDS011;26329;40.388;-3.710;2022-07-29T03:47:10;4.60;;;1.38;;
40629;SDS011;26329;40.388;-3.710;2022-07-29T03:57:14;3.65;;;1.48;;
40629;SDS011;26329;40.388;-3.710;2022-07-29T04:07:17;4.63;;;1.50;;
40629;SDS011;26329;40.388;-3.710;2022-07-29T04:17:18;9.43;;;1.95;;
40629;SDS011;26329;40.388;-3.710;2022-07-29T04:27:20;5.65;;;1.15;;
40629;SDS011;26329;40.388;-3.710;2022-07-29T04:37:22;6.63;;;1.35;;
40629;SDS011;26329;40.388;-3.710;2022-07-29T04:47:23;6.68;;;1.20;;
40629;SDS011;26329;40.388;-3.710;2022-07-29T04:57:25;4.97;;;1.33;;
40629;SDS011;26329;40.388;-3.710;2022-07-29T05:07:26;5.55;;;1.67;;
40629;SDS011;26329;40.388;-3.710;2022-07-29T05:17:28;9.95;;;1.30;;
40629;SDS011;26329;40.388;-3.710;2022-07-29T05:27:30;7.43;;;2.13;;
40629;SDS011;26329;40.388;-3.710;2022-07-29T05:37:32;6.20;;;1.67;;
40629;SDS011;26329;40.388;-3.710;2022-07-29T05:47:34;8.18;;;1.58;;
40629;SDS011;26329;40.388;-3.710;2022-07-29T05:57:35;23.80;;;10.27;;
40629;SDS011;26329;40.388;-3.710;2022-07-29T06:07:37;6.75;;;1.50;;
40629;SDS011;26329;40.388;-3.710;2022-07-29T06:17:38;11.48;;;1.35;;
40629;SDS011;26329;40.388;-3.710;2022-07-29T06:27:40;20.65;;;10.63;;
40629;SDS011;26329;40.388;-3.710;2022-07-29T06:37:41;23.25;;;3.78;;
40629;SDS011;26329;40.388;-3.710;2022-07-29T06:47:43;15.05;;;3.88;;
40629;SDS011;26329;40.388;-3.710;2022-07-29T06:57:45;14.85;;;1.67;;
40629;SDS011;26329;40.388;-3.710;2022-07-29T07:07:47;6.40;;;1.42;;
40629;SDS011;26329;40.388;-3.710;2022-07-29T07:17:49;10.23;;;1.42;;
40629;SDS011;26329;40.388;-3.710;2022-07-29T07:27:52;7.15;;;1.27;;
40629;SDS011;26329;40.388;-3.710;2022-07-29T07:37:56;13.88;;;1.98;;
40629;SDS011;26329;40.388;-3.710;2022-07-29T07:47:59;8.68;;;1.10;;
40629;SDS011;26329;40.388;-3.710;2022-07-29T07:58:01;16.73;;;1.73;;
40629;SDS011;26329;40.388;-3.710;2022-07-29T08:08:03;13.57;;;1.25;;
40629;SDS011;26329;40.388;-3.710;2022-07-29T08:18:05;12.18;;;1.55;;
40629;SDS011;26329;40.388;-3.710;2022-07-29T08:28:07;12.05;;;1.63;;
40629;SDS011;26329;40.388;-3.710;2022-07-29T08:38:10;13.77;;;1.77;;
40629;SDS011;26329;40.388;-3.710;2022-07-29T08:48:12;8.55;;;1.35;;
40629;SDS011;26329;40.388;-3.710;2022-07-29T08:58:14;12.38;;;1.80;;
40629;SDS011;26329;40.388;-3.710;2022-07-29T09:08:16;11.27;;;1.10;;
40629;SDS011;26329;40.388;-3.710;2022-07-29T09:18:35;11.48;;;1.23;;
40629;SDS011;26329;40.388;-3.710;2022-07-29T09:28:41;10.32;;;1.20;;
40629;SDS011;26329;40.388;-3.710;2022-07-29T09:38:56;9.63;;;1.47;;
40629;SDS011;26329;40.388;-3.710;2022-07-29T09:49:12;9.10;;;1.50;;
40629;SDS011;26329;40.388;-3.710;2022-07-29T09:59:15;13.07;;;1.48;;
40629;SDS011;26329;40.388;-3.710;2022-07-29T10:09:18;12.02;;;1.88;;
40629;SDS011;26329;40.388;-3.710;2022-07-29T10:19:20;18.00;;;2.70;;
40629;SDS011;26329;40.388;-3.710;2022-07-29T10:29:24;11.07;;;1.50;;
40629;SDS011;26329;40.388;-3.710;2022-07-29T10:39:46;11.60;;;1.50;;
40629;SDS011;26329;40.388;-3.710;2022-07-29T10:49:57;11.35;;;1.88;;
40629;SDS011;26329;40.388;-3.710;2022-07-29T11:51:25;2.65;;;0.20;;
40629;SDS011;26329;40.388;-3.710;2022-07-29T12:01:28;1.20;;;1.00;;
40629;SDS011;26329;40.388;-3.710;2022-07-29T12:11:30;2.53;;;0.40;;
40629;SDS011;26329;40.388;-3.710;2022-07-29T12:32:04;2.53;;;0.95;;
40629;SDS011;26329;40.388;-3.710;2022-07-29T12:42:13;1.08;;;0.10;;
40629;SDS011;26329;40.388;-3.710;2022-07-29T12:52:31;2.55;;;0.10;;
40629;SDS011;26329;40.388;-3.710;2022-07-29T13:02:33;2.30;;;0.10;;
40629;SDS011;26329;40.388;-3.710;2022-07-29T13:12:36;3.42;;;0.20;;
40629;SDS011;26329;40.388;-3.710;2022-07-29T13:22:41;1.20;;;0.10;;
40629;SDS011;26329;40.388;-3.710;2022-07-29T13:32:43;2.75;;;0.50;;
40629;SDS011;26329;40.388;-3.710;2022-07-29T13:42:46;0.85;;;0.10;;
40629;SDS011;26329;40.388;-3.710;2022-07-29T13:52:48;7.85;;;0.50;;
40629;SDS011;26329;40.388;-3.710;2022-07-29T14:02:52;9.23;;;8.02;;
40629;SDS011;26329;40.388;-3.710;2022-07-29T14:12:54;2.60;;;0.10;;
40629;SDS011;26329;40.388;-3.710;2022-07-29T14:22:56;1.20;;;0.10;;
40629;SDS011;26329;40.388;-3.710;2022-07-29T14:32:58;1.98;;;0.00;;
40629;SDS011;26329;40.388;-3.710;2022-07-29T14:43:00;2.25;;;0.10;;
40629;SDS011;26329;40.388;-3.710;2022-07-29T14:53:02;0.77;;;0.20;;
40629;SDS011;26329;40.388;-3.710;2022-07-29T15:03:04;3.53;;;0.20;;
40629;SDS011;26329;40.388;-3.710;2022-07-29T15:13:06;3.53;;;0.30;;
40629;SDS011;26329;40.388;-3.710;2022-07-29T15:23:08;5.95;;;0.60;;
40629;SDS011;26329;40.388;-3.710;2022-07-29T15:33:10;2.33;;;0.25;;
40629;SDS011;26329;40.388;-3.710;2022-07-29T15:43:15;1.73;;;0.40;;
40629;SDS011;26329;40.388;-3.710;2022-07-29T15:53:17;1.38;;;0.40;;
40629;SDS011;26329;40.388;-3.710;2022-07-29T16:03:19;3.70;;;0.13;;
40629;SDS011;26329;40.388;-3.710;2022-07-29T16:13:22;7.85;;;0.30;;
40629;SDS011;26329;40.388;-3.710;2022-07-29T16:23:24;6.32;;;0.50;;
40629;SDS011;26329;40.388;-3.710;2022-07-29T16:33:25;3.45;;;0.20;;
40629;SDS011;26329;40.388;-3.710;2022-07-29T16:43:28;4.18;;;0.30;;
40629;SDS011;26329;40.388;-3.710;2022-07-29T16:53:30;2.30;;;0.20;;
40629;SDS011;26329;40.388;-3.710;2022-07-29T17:03:32;7.65;;;0.20;;
40629;SDS011;26329;40.388;-3.710;2022-07-29T17:13:34;4.05;;;0.10;;
40629;SDS011;26329;40.388;-3.710;2022-07-29T17:23:36;0.60;;;0.10;;
40629;SDS011;26329;40.388;-3.710;2022-07-29T17:33:39;1.17;;;0.08;;
40629;SDS011;26329;40.388;-3.710;2022-07-29T17:43:41;1.13;;;0.10;;
40629;SDS011;26329;40.388;-3.710;2022-07-29T17:53:43;3.60;;;0.30;;
40629;SDS011;26329;40.388;-3.710;2022-07-29T18:03:45;3.58;;;0.15;;
40629;SDS011;26329;40.388;-3.710;2022-07-29T18:13:48;0.22;;;0.00;;
40629;SDS011;26329;40.388;-3.710;2022-07-29T18:23:50;2.50;;;0.10;;
40629;SDS011;26329;40.388;-3.710;2022-07-29T18:33:52;3.75;;;0.10;;
40629;SDS011;26329;40.388;-3.710;2022-07-29T18:43:54;1.25;;;0.10;;
40629;SDS011;26329;40.388;-3.710;2022-07-29T18:53:56;2.75;;;0.10;;
40629;SDS011;26329;40.388;-3.710;2022-07-29T19:03:58;1.75;;;0.10;;
40629;SDS011;26329;40.388;-3.710;2022-07-29T19:14:01;5.82;;;0.65;;
40629;SDS011;26329;40.388;-3.710;2022-07-29T19:24:03;3.72;;;0.30;;
40629;SDS011;26329;40.388;-3.710;2022-07-29T19:34:07;3.72;;;0.10;;
40629;SDS011;26329;40.388;-3.710;2022-07-29T19:44:09;2.40;;;0.30;;
40629;SDS011;26329;40.388;-3.710;2022-07-29T19:54:15;5.10;;;4.38;;
40629;SDS011;26329;40.388;-3.710;2022-07-29T20:04:17;4.13;;;0.38;;
40629;SDS011;26329;40.388;-3.710;2022-07-29T20:14:20;4.90;;;3.05;;
40629;SDS011;26329;40.388;-3.710;2022-07-29T20:24:22;1.98;;;0.65;;
40629;SDS011;26329;40.388;-3.710;2022-07-29T20:34:24;4.82;;;0.73;;
40629;SDS011;26329;40.388;-3.710;2022-07-29T20:44:26;3.13;;;0.40;;
40629;SDS011;26329;40.388;-3.710;2022-07-29T20:54:28;4.82;;;0.20;;
40629;SDS011;26329;40.388;-3.710;2022-07-29T21:04:30;2.40;;;1.08;;
40629;SDS011;26329;40.388;-3.710;2022-07-29T21:14:31;4.75;;;0.50;;
40629;SDS011;26329;40.388;-3.710;2022-07-29T21:24:36;2.63;;;0.85;;
40629;SDS011;26329;40.388;-3.710;2022-07-29T21:34:38;3.92;;;0.80;;
40629;SDS011;26329;40.388;-3.710;2022-07-29T21:44:40;4.95;;;0.70;;
40629;SDS011;26329;40.388;-3.710;2022-07-29T21:54:41;3.47;;;0.63;;
40629;SDS011;26329;40.388;-3.710;2022-07-29T22:04:42;2.22;;;0.63;;
40629;SDS011;26329;40.388;-3.710;2022-07-29T22:14:44;3.25;;;0.30;;
40629;SDS011;26329;40.388;-3.710;2022-07-29T22:24:46;16.45;;;0.60;;
40629;SDS011;26329;40.388;-3.710;2022-07-29T22:34:47;12.90;;;0.63;;
40629;SDS011;26329;40.388;-3.710;2022-07-29T22:44:49;7.68;;;0.30;;
40629;SDS011;26329;40.388;-3.710;2022-07-29T22:54:51;13.35;;;0.82;;
40629;SDS011;26329;40.388;-3.710;2022-07-29T23:04:52;8.80;;;0.75;;
40629;SDS011;26329;40.388;-3.710;2022-07-29T23:14:54;7.25;;;0.47;;
40629;SDS011;26329;40.388;-3.710;2022-07-29T23:24:55;7.68;;;0.50;;
40629;SDS011;26329;40.388;-3.710;2022-07-29T23:34:57;6.05;;;0.20;;
40629;SDS011;26329;40.388;-3.710;2022-07-29T23:45:00;4.80;;;0.30;;
40629;SDS011;26329;40.388;-3.710;2022-07-29T23:55:02;5.65;;;0.43;;
